createdAt,value
2018-12-24T00:00:17.612Z,9.14
2018-12-24T00:01:17.893Z,9.21
2018-12-24T00:02:17.644Z,9.21
2018-12-24T00:03:17.673Z,9.21
2018-12-24T00:04:17.688Z,9.14
2018-12-24T00:05:17.705Z,9.1
2018-12-24T00:06:17.455Z,9.11
2018-12-24T00:07:17.484Z,9.11
2018-12-24T00:08:17.760Z,9.19
2018-12-24T00:09:18.050Z,9.1
2018-12-24T00:10:17.785Z,9.06
2018-12-24T00:11:17.833Z,9.02
2018-12-24T00:12:18.086Z,9.08
2018-12-24T00:13:18.119Z,9.06
2018-12-24T00:14:17.885Z,9
2018-12-24T00:15:17.906Z,9.1
2018-12-24T00:16:17.908Z,9.06
2018-12-24T00:17:17.665Z,9.13
2018-12-24T00:18:17.679Z,9.11
2018-12-24T00:19:17.711Z,9.06
2018-12-24T00:20:17.722Z,9.1
2018-12-24T00:21:18.272Z,9.03
2018-12-24T00:22:18.032Z,9.11
2018-12-24T00:23:18.047Z,9.06
2018-12-24T00:24:18.057Z,9.1
2018-12-24T00:25:18.320Z,9.08
2018-12-24T00:26:17.835Z,9.03
2018-12-24T00:27:17.852Z,9.1
2018-12-24T00:28:18.147Z,9.1
2018-12-24T00:29:18.142Z,9.08
2018-12-24T00:30:18.171Z,9.16
2018-12-24T00:31:18.450Z,9.1
2018-12-24T00:32:17.959Z,9.1
2018-12-24T00:33:17.966Z,9.13
2018-12-24T00:34:17.986Z,9.11
2018-12-24T00:35:18.246Z,9.08
2018-12-24T00:36:18.017Z,9.08
2018-12-24T00:37:18.563Z,9.11
2018-12-24T00:38:18.308Z,9
2018-12-24T00:39:18.342Z,9.04
2018-12-24T00:40:18.097Z,9.1
2018-12-24T00:41:18.111Z,9.1
2018-12-24T00:42:20.332Z,9.04
2018-12-24T00:43:18.161Z,9.04
2018-12-24T00:44:18.708Z,9.04
2018-12-24T00:45:18.697Z,9.1
2018-12-24T00:46:18.732Z,9.1
2018-12-24T00:47:18.228Z,9.08
2018-12-24T00:48:18.503Z,9.13
2018-12-24T00:49:18.257Z,9.1
2018-12-24T00:50:18.821Z,9.1
2018-12-24T00:51:18.568Z,9.1
2018-12-24T00:52:18.598Z,9.04
2018-12-24T00:53:18.338Z,9.08
2018-12-24T00:54:18.358Z,9.06
2018-12-24T00:55:18.894Z,9.1
2018-12-24T00:56:19.970Z,9.06
2018-12-24T00:57:18.676Z,9.1
2018-12-24T00:58:18.964Z,9.1
2018-12-24T00:59:18.570Z,9.03
2018-12-24T01:00:18.727Z,9.03
2018-12-24T01:01:18.744Z,9.11
2018-12-24T01:02:18.505Z,9.08
2018-12-24T01:03:19.061Z,9.08
2018-12-24T01:04:18.800Z,9.1
2018-12-24T01:05:18.809Z,9.08
2018-12-24T01:06:18.858Z,9.08
2018-12-24T01:07:18.611Z,9.08
2018-12-24T01:08:18.626Z,9.08
2018-12-24T01:09:19.160Z,9.04
2018-12-24T01:10:19.164Z,9.08
2018-12-24T01:11:18.934Z,9.08
2018-12-24T01:12:26.707Z,9.06
2018-12-24T01:13:18.710Z,9.08
2018-12-24T01:14:18.993Z,9.04
2018-12-24T01:15:18.744Z,9.08
2018-12-24T01:16:18.764Z,9.04
2018-12-24T01:17:18.789Z,9.13
2018-12-24T01:18:18.815Z,9.1
2018-12-24T01:19:19.089Z,9.04
2018-12-24T01:20:19.370Z,9.08
2018-12-24T01:21:19.119Z,9.08
2018-12-24T01:22:19.146Z,9.06
2018-12-24T01:23:19.147Z,9
2018-12-24T01:24:18.922Z,9.08
2018-12-24T01:25:19.473Z,9.08
2018-12-24T01:26:19.218Z,9.08
2018-12-24T01:27:19.236Z,9.1
2018-12-24T01:28:19.398Z,9.02
2018-12-24T01:29:19.259Z,9
2018-12-24T01:30:19.021Z,9.03
2018-12-24T01:31:19.309Z,9.08
2018-12-24T01:32:19.074Z,9.11
2018-12-24T01:33:19.346Z,9.08
2018-12-24T01:34:19.099Z,9
2018-12-24T01:35:19.397Z,9.11
2018-12-24T01:36:19.669Z,9.1
2018-12-24T01:37:19.163Z,9
2018-12-24T01:38:19.436Z,9.1
2018-12-24T01:39:19.455Z,9.04
2018-12-24T01:40:19.229Z,9.1
2018-12-24T01:41:19.772Z,9.11
2018-12-24T01:42:19.251Z,9.08
2018-12-24T01:43:19.525Z,9.08
2018-12-24T01:44:19.543Z,9.04
2018-12-24T01:45:19.310Z,9.02
2018-12-24T01:46:19.600Z,9.1
2018-12-24T01:47:19.596Z,9.02
2018-12-24T01:48:20.140Z,9.06
2018-12-24T01:49:19.630Z,9.03
2018-12-24T01:50:19.405Z,9.04
2018-12-24T01:51:20.033Z,9.04
2018-12-24T01:52:19.548Z,9.08
2018-12-24T01:53:19.457Z,9.08
2018-12-24T01:54:19.741Z,9.1
2018-12-24T01:55:19.497Z,9.08
2018-12-24T01:56:19.496Z,9.08
2018-12-24T01:57:19.795Z,9.03
2018-12-24T01:58:20.056Z,9.08
2018-12-24T01:59:21.272Z,9.13
2018-12-24T02:00:19.855Z,9.02
2018-12-24T02:01:19.867Z,9.04
2018-12-24T02:02:19.627Z,9.02
2018-12-24T02:03:19.902Z,9.08
2018-12-24T02:04:20.168Z,9.11
2018-12-24T02:05:19.937Z,9.08
2018-12-24T02:06:19.949Z,9.08
2018-12-24T02:07:20.339Z,8.99
2018-12-24T02:08:19.741Z,9.02
2018-12-24T02:09:19.744Z,9.03
2018-12-24T02:10:20.299Z,9.04
2018-12-24T02:11:19.804Z,9.08
2018-12-24T02:12:20.058Z,9.03
2018-12-24T02:13:19.925Z,9.04
2018-12-24T02:14:20.367Z,9.1
2018-12-24T02:15:19.874Z,9.04
2018-12-24T02:16:20.146Z,9.1
2018-12-24T02:17:20.147Z,9
2018-12-24T02:18:19.917Z,9.08
2018-12-24T02:19:19.934Z,9.1
2018-12-24T02:20:20.218Z,9.06
2018-12-24T02:21:20.246Z,9.1
2018-12-24T02:22:19.996Z,9.08
2018-12-24T02:23:20.006Z,9.03
2018-12-24T02:24:20.300Z,9
2018-12-24T02:25:20.326Z,8.94
2018-12-24T02:26:20.056Z,9.03
2018-12-24T02:27:20.090Z,9.02
2018-12-24T02:28:20.095Z,8.99
2018-12-24T02:29:20.392Z,8.95
2018-12-24T02:30:20.416Z,9
2018-12-24T02:31:20.711Z,8.91
2018-12-24T02:32:20.465Z,8.97
2018-12-24T02:33:20.717Z,9.02
2018-12-24T02:34:20.212Z,9
2018-12-24T02:35:20.499Z,9
2018-12-24T02:36:20.525Z,8.95
2018-12-24T02:37:20.523Z,9
2018-12-24T02:38:20.564Z,8.97
2018-12-24T02:39:20.840Z,9
2018-12-24T02:40:20.572Z,9
2018-12-24T02:41:20.764Z,9.04
2018-12-24T02:42:20.894Z,8.91
2018-12-24T02:43:20.399Z,8.95
2018-12-24T02:44:20.664Z,8.95
2018-12-24T02:45:20.691Z,8.94
2018-12-24T02:46:20.442Z,9
2018-12-24T02:47:20.964Z,9.02
2018-12-24T02:48:20.722Z,8.97
2018-12-24T02:49:21.012Z,9.03
2018-12-24T02:50:21.039Z,9.03
2018-12-24T02:51:20.788Z,8.99
2018-12-24T02:52:21.074Z,9.02
2018-12-24T02:53:20.845Z,9.02
2018-12-24T02:54:20.595Z,9.02
2018-12-24T02:55:20.715Z,9
2018-12-24T02:56:20.893Z,9
2018-12-24T02:57:20.901Z,9.02
2018-12-24T02:58:20.932Z,8.95
2018-12-24T02:59:20.950Z,9
2018-12-24T03:00:21.212Z,9
2018-12-24T03:01:20.974Z,8.97
2018-12-24T03:02:20.996Z,8.97
2018-12-24T03:03:21.007Z,8.99
2018-12-24T03:04:21.277Z,8.97
2018-12-24T03:05:21.054Z,9.02
2018-12-24T03:06:20.801Z,9
2018-12-24T03:07:21.096Z,8.99
2018-12-24T03:08:21.369Z,9.08
2018-12-24T03:09:20.866Z,9.06
2018-12-24T03:10:21.140Z,9.02
2018-12-24T03:11:21.416Z,9.04
2018-12-24T03:12:21.187Z,9.02
2018-12-24T03:13:21.204Z,8.95
2018-12-24T03:14:21.487Z,9.11
2018-12-24T03:15:21.491Z,9
2018-12-24T03:16:20.990Z,9.03
2018-12-24T03:17:21.004Z,9.08
2018-12-24T03:18:21.286Z,9.08
2018-12-24T03:19:21.037Z,9.06
2018-12-24T03:20:21.067Z,9.11
2018-12-24T03:21:21.338Z,9.04
2018-12-24T03:22:21.110Z,9.02
2018-12-24T03:23:21.123Z,8.97
2018-12-24T03:24:21.142Z,9.04
2018-12-24T03:25:21.418Z,9
2018-12-24T03:26:21.439Z,9.03
2018-12-24T03:27:21.460Z,9.04
2018-12-24T03:28:21.728Z,9.03
2018-12-24T03:29:21.504Z,9.04
2018-12-24T03:30:21.561Z,8.99
2018-12-24T03:31:21.847Z,9.04
2018-12-24T03:32:21.578Z,9
2018-12-24T03:33:21.592Z,9.02
2018-12-24T03:34:21.314Z,8.97
2018-12-24T03:35:21.605Z,9.03
2018-12-24T03:36:21.613Z,8.97
2018-12-24T03:37:21.397Z,8.97
2018-12-24T03:38:21.671Z,8.97
2018-12-24T03:39:21.675Z,8.95
2018-12-24T03:40:21.720Z,9.03
2018-12-24T03:41:21.869Z,9
2018-12-24T03:42:21.776Z,8.97
2018-12-24T03:43:21.849Z,8.99
2018-12-24T03:44:21.769Z,8.99
2018-12-24T03:45:22.079Z,9.03
2018-12-24T03:46:21.808Z,8.99
2018-12-24T03:47:22.081Z,9.02
2018-12-24T03:48:21.854Z,9.03
2018-12-24T03:49:21.602Z,9.03
2018-12-24T03:50:21.876Z,9.08
2018-12-24T03:51:21.885Z,8.94
2018-12-24T03:52:21.653Z,9.02
2018-12-24T03:53:22.192Z,8.95
2018-12-24T03:54:21.690Z,8.94
2018-12-24T03:55:22.022Z,8.95
2018-12-24T03:56:21.998Z,8.91
2018-12-24T03:57:21.752Z,9.03
2018-12-24T03:58:22.037Z,8.99
2018-12-24T03:59:21.778Z,8.95
2018-12-24T04:00:22.054Z,8.95
2018-12-24T04:01:21.811Z,8.94
2018-12-24T04:02:22.083Z,8.99
2018-12-24T04:03:21.840Z,9.02
2018-12-24T04:04:22.123Z,8.95
2018-12-24T04:05:22.423Z,9.03
2018-12-24T04:06:22.435Z,9.02
2018-12-24T04:07:22.443Z,8.97
2018-12-24T04:08:22.235Z,9
2018-12-24T04:09:22.483Z,8.99
2018-12-24T04:10:22.250Z,9.02
2018-12-24T04:11:24.005Z,9
2018-12-24T04:12:22.297Z,8.94
2018-12-24T04:13:27.271Z,9.02
2018-12-24T04:14:22.328Z,8.91
2018-12-24T04:15:22.337Z,9.02
2018-12-24T04:16:22.341Z,8.97
2018-12-24T04:17:22.385Z,9
2018-12-24T04:18:22.148Z,8.97
2018-12-24T04:19:22.671Z,9.02
2018-12-24T04:20:22.434Z,8.99
2018-12-24T04:21:22.827Z,8.97
2018-12-24T04:22:22.464Z,9.02
2018-12-24T04:23:22.228Z,8.97
2018-12-24T04:24:22.241Z,8.94
2018-12-24T04:25:22.792Z,8.97
2018-12-24T04:26:22.531Z,8.92
2018-12-24T04:27:22.549Z,9.02
2018-12-24T04:28:22.582Z,8.89
2018-12-24T04:29:22.597Z,9.03
2018-12-24T04:30:22.895Z,9.02
2018-12-24T04:31:22.891Z,9.02
2018-12-24T04:32:22.376Z,8.97
2018-12-24T04:33:22.672Z,8.92
2018-12-24T04:34:22.426Z,8.94
2018-12-24T04:35:22.691Z,9.03
2018-12-24T04:36:22.455Z,8.97
2018-12-24T04:37:23.006Z,8.97
2018-12-24T04:38:22.492Z,8.94
2018-12-24T04:39:22.509Z,8.95
2018-12-24T04:40:22.812Z,8.95
2018-12-24T04:41:22.817Z,8.95
2018-12-24T04:42:23.103Z,8.97
2018-12-24T04:43:31.799Z,8.97
2018-12-24T04:44:22.606Z,8.95
2018-12-24T04:45:22.907Z,8.88
2018-12-24T04:46:22.892Z,9
2018-12-24T04:47:22.670Z,8.92
2018-12-24T04:48:23.195Z,8.94
2018-12-24T04:49:23.063Z,8.92
2018-12-24T04:50:22.723Z,8.95
2018-12-24T04:51:23.266Z,9
2018-12-24T04:52:23.286Z,8.88
2018-12-24T04:53:22.776Z,8.95
2018-12-24T04:54:23.096Z,9
2018-12-24T04:55:23.448Z,8.94
2018-12-24T04:56:23.078Z,9
2018-12-24T04:57:22.834Z,8.92
2018-12-24T04:58:23.361Z,8.94
2018-12-24T04:59:22.879Z,8.91
2018-12-24T05:00:23.418Z,8.94
2018-12-24T05:01:22.934Z,9
2018-12-24T05:02:23.198Z,9
2018-12-24T05:03:23.470Z,9.02
2018-12-24T05:04:23.486Z,8.92
2018-12-24T05:05:23.494Z,9.02
2018-12-24T05:06:23.270Z,8.95
2018-12-24T05:07:23.299Z,8.95
2018-12-24T05:08:23.296Z,9.02
2018-12-24T05:09:23.067Z,8.91
2018-12-24T05:10:23.350Z,8.94
2018-12-24T05:11:23.610Z,8.94
2018-12-24T05:12:23.163Z,8.97
2018-12-24T05:13:23.391Z,8.97
2018-12-24T05:14:23.134Z,9.02
2018-12-24T05:15:23.505Z,9.02
2018-12-24T05:16:23.194Z,8.97
2018-12-24T05:17:23.214Z,8.97
2018-12-24T05:18:23.208Z,8.94
2018-12-24T05:19:23.239Z,8.97
2018-12-24T05:20:23.263Z,8.92
2018-12-24T05:21:23.799Z,8.97
2018-12-24T05:22:23.544Z,8.97
2018-12-24T05:23:23.812Z,8.99
2018-12-24T05:24:23.864Z,8.95
2018-12-24T05:25:23.602Z,8.95
2018-12-24T05:26:23.901Z,8.99
2018-12-24T05:27:23.899Z,8.95
2018-12-24T05:28:23.672Z,9.02
2018-12-24T05:29:23.684Z,9
2018-12-24T05:30:23.717Z,8.99
2018-12-24T05:31:23.460Z,8.94
2018-12-24T05:32:23.468Z,8.97
2018-12-24T05:33:23.808Z,8.95
2018-12-24T05:34:23.769Z,9.02
2018-12-24T05:35:23.787Z,8.95
2018-12-24T05:36:23.801Z,8.95
2018-12-24T05:37:24.085Z,8.95
2018-12-24T05:38:23.837Z,8.95
2018-12-24T05:39:23.877Z,8.95
2018-12-24T05:40:24.125Z,9.03
2018-12-24T05:41:23.890Z,8.97
2018-12-24T05:42:24.193Z,8.97
2018-12-24T05:43:23.671Z,9.04
2018-12-24T05:44:23.959Z,9.02
2018-12-24T05:45:23.978Z,8.97
2018-12-24T05:46:24.312Z,9.02
2018-12-24T05:47:24.266Z,9.02
2018-12-24T05:48:24.009Z,8.97
2018-12-24T05:49:23.778Z,8.94
2018-12-24T05:50:23.789Z,9
2018-12-24T05:51:23.810Z,8.97
2018-12-24T05:52:24.093Z,8.99
2018-12-24T05:53:24.125Z,8.94
2018-12-24T05:54:24.123Z,8.95
2018-12-24T05:55:24.398Z,9
2018-12-24T05:56:24.180Z,8.99
2018-12-24T05:57:24.189Z,8.97
2018-12-24T05:58:24.275Z,8.92
2018-12-24T05:59:24.487Z,8.94
2018-12-24T06:00:24.251Z,8.91
2018-12-24T06:01:24.267Z,8.94
2018-12-24T06:02:24.556Z,8.99
2018-12-24T06:03:24.044Z,8.99
2018-12-24T06:04:24.496Z,8.94
2018-12-24T06:05:24.334Z,8.87
2018-12-24T06:06:24.095Z,8.88
2018-12-24T06:07:24.369Z,8.92
2018-12-24T06:08:24.757Z,8.88
2018-12-24T06:09:24.412Z,8.92
2018-12-24T06:10:24.430Z,8.92
2018-12-24T06:11:24.720Z,8.89
2018-12-24T06:12:24.724Z,8.92
2018-12-24T06:13:24.483Z,8.89
2018-12-24T06:14:24.510Z,8.97
2018-12-24T06:15:24.515Z,8.89
2018-12-24T06:16:24.288Z,8.91
2018-12-24T06:17:24.801Z,8.91
2018-12-24T06:18:24.306Z,8.91
2018-12-24T06:19:24.336Z,8.91
2018-12-24T06:20:24.361Z,8.94
2018-12-24T06:21:24.454Z,8.97
2018-12-24T06:22:24.385Z,8.89
2018-12-24T06:23:24.393Z,8.85
2018-12-24T06:24:24.424Z,8.85
2018-12-24T06:25:24.477Z,8.89
2018-12-24T06:26:24.461Z,8.89
2018-12-24T06:27:24.995Z,8.89
2018-12-24T06:28:24.766Z,8.84
2018-12-24T06:29:25.069Z,8.91
2018-12-24T06:30:24.781Z,8.88
2018-12-24T06:31:24.550Z,8.89
2018-12-24T06:32:24.829Z,8.82
2018-12-24T06:33:25.110Z,8.87
2018-12-24T06:34:24.866Z,8.91
2018-12-24T06:35:24.895Z,8.76
2018-12-24T06:36:24.907Z,8.91
2018-12-24T06:37:24.657Z,8.82
2018-12-24T06:38:25.213Z,8.85
2018-12-24T06:39:24.954Z,8.85
2018-12-24T06:40:24.963Z,8.88
2018-12-24T06:41:25.020Z,8.79
2018-12-24T06:42:24.999Z,8.76
2018-12-24T06:43:24.773Z,8.88
2018-12-24T06:44:25.056Z,8.78
2018-12-24T06:45:24.806Z,8.85
2018-12-24T06:46:25.083Z,8.73
2018-12-24T06:47:25.357Z,8.74
2018-12-24T06:48:24.859Z,8.71
2018-12-24T06:49:25.139Z,8.73
2018-12-24T06:50:25.003Z,8.84
2018-12-24T06:51:24.916Z,8.81
2018-12-24T06:52:25.188Z,8.78
2018-12-24T06:53:25.468Z,8.74
2018-12-24T06:54:25.487Z,8.73
2018-12-24T06:55:25.336Z,8.78
2018-12-24T06:56:25.267Z,8.78
2018-12-24T06:57:25.294Z,8.79
2018-12-24T06:58:25.562Z,8.69
2018-12-24T06:59:25.305Z,8.76
2018-12-24T07:00:25.374Z,8.84
2018-12-24T07:01:25.611Z,8.76
2018-12-24T07:02:25.749Z,8.71
2018-12-24T07:03:25.376Z,8.7
2018-12-24T07:04:25.430Z,8.73
2018-12-24T07:05:25.174Z,8.74
2018-12-24T07:06:25.452Z,8.74
2018-12-24T07:07:25.204Z,8.73
2018-12-24T07:08:25.472Z,8.74
2018-12-24T07:09:25.781Z,8.74
2018-12-24T07:10:25.526Z,8.79
2018-12-24T07:11:25.534Z,8.78
2018-12-24T07:12:25.554Z,8.76
2018-12-24T07:13:25.571Z,8.85
2018-12-24T07:14:25.589Z,8.69
2018-12-24T07:15:25.620Z,8.7
2018-12-24T07:16:25.365Z,8.7
2018-12-24T07:17:25.372Z,8.7
2018-12-24T07:18:25.940Z,8.73
2018-12-24T07:19:25.466Z,8.64
2018-12-24T07:20:25.717Z,8.66
2018-12-24T07:21:25.715Z,8.69
2018-12-24T07:22:25.468Z,8.69
2018-12-24T07:23:25.802Z,8.7
2018-12-24T07:24:25.793Z,8.7
2018-12-24T07:25:25.794Z,8.69
2018-12-24T07:26:25.549Z,8.66
2018-12-24T07:27:25.819Z,8.67
2018-12-24T07:28:25.577Z,8.66
2018-12-24T07:29:25.869Z,8.66
2018-12-24T07:30:25.622Z,8.74
2018-12-24T07:31:25.976Z,8.7
2018-12-24T07:32:26.180Z,8.7
2018-12-24T07:33:25.681Z,8.64
2018-12-24T07:34:34.701Z,8.64
2018-12-24T07:35:25.700Z,8.7
2018-12-24T07:36:25.725Z,8.7
2018-12-24T07:37:25.744Z,8.76
2018-12-24T07:38:25.765Z,8.69
2018-12-24T07:39:26.309Z,8.73
2018-12-24T07:40:26.076Z,8.71
2018-12-24T07:41:26.348Z,8.71
2018-12-24T07:42:26.102Z,8.7
2018-12-24T07:43:26.115Z,8.67
2018-12-24T07:44:29.073Z,8.74
2018-12-24T07:45:25.894Z,8.7
2018-12-24T07:46:26.181Z,8.79
2018-12-24T07:47:26.227Z,8.69
2018-12-24T07:48:25.945Z,8.67
2018-12-24T07:49:25.962Z,8.66
2018-12-24T07:50:26.227Z,8.67
2018-12-24T07:51:26.009Z,8.69
2018-12-24T07:52:26.278Z,8.71
2018-12-24T07:53:26.378Z,8.66
2018-12-24T07:54:26.054Z,8.71
2018-12-24T07:55:26.073Z,8.74
2018-12-24T07:56:26.615Z,8.7
2018-12-24T07:57:26.363Z,8.67
2018-12-24T07:58:26.644Z,8.63
2018-12-24T07:59:26.407Z,8.66
2018-12-24T08:00:26.156Z,8.67
2018-12-24T08:01:26.175Z,8.67
2018-12-24T08:02:26.454Z,8.66
2018-12-24T08:03:26.751Z,8.67
2018-12-24T08:04:26.514Z,8.73
2018-12-24T08:05:26.256Z,8.67
2018-12-24T08:06:26.273Z,8.73
2018-12-24T08:07:26.288Z,8.67
2018-12-24T08:08:26.554Z,8.61
2018-12-24T08:09:26.335Z,8.64
2018-12-24T08:10:26.597Z,8.63
2018-12-24T08:11:26.624Z,8.63
2018-12-24T08:12:26.641Z,8.56
2018-12-24T08:13:26.394Z,8.64
2018-12-24T08:14:35.360Z,8.67
2018-12-24T08:15:26.956Z,8.55
2018-12-24T08:16:26.985Z,8.61
2018-12-24T08:17:26.738Z,8.61
2018-12-24T08:18:26.743Z,8.6
2018-12-24T08:19:26.780Z,8.63
2018-12-24T08:20:26.525Z,8.58
2018-12-24T08:21:26.531Z,8.58
2018-12-24T08:22:26.838Z,8.61
2018-12-24T08:23:27.100Z,8.64
2018-12-24T08:24:26.863Z,8.61
2018-12-24T08:25:26.869Z,8.63
2018-12-24T08:26:26.979Z,8.69
2018-12-24T08:27:26.637Z,8.64
2018-12-24T08:28:26.941Z,8.66
2018-12-24T08:29:26.703Z,8.63
2018-12-24T08:30:27.221Z,8.63
2018-12-24T08:31:26.827Z,8.61
2018-12-24T08:32:26.742Z,8.63
2018-12-24T08:33:27.116Z,8.56
2018-12-24T08:34:27.037Z,8.58
2018-12-24T08:35:26.795Z,8.69
2018-12-24T08:36:27.069Z,8.64
2018-12-24T08:37:27.084Z,8.61
2018-12-24T08:38:26.859Z,8.61
2018-12-24T08:39:27.146Z,8.56
2018-12-24T08:40:27.159Z,8.73
2018-12-24T08:41:27.161Z,8.58
2018-12-24T08:42:27.213Z,8.58
2018-12-24T08:43:27.441Z,8.64
2018-12-24T08:44:27.322Z,8.58
2018-12-24T08:45:27.229Z,8.63
2018-12-24T08:46:27.001Z,8.58
2018-12-24T08:47:27.269Z,8.58
2018-12-24T08:48:27.279Z,8.55
2018-12-24T08:49:27.302Z,8.61
2018-12-24T08:50:27.339Z,8.58
2018-12-24T08:51:27.167Z,8.67
2018-12-24T08:52:27.355Z,8.58
2018-12-24T08:53:27.115Z,8.55
2018-12-24T08:54:27.425Z,8.6
2018-12-24T08:55:27.403Z,8.58
2018-12-24T08:56:29.197Z,8.63
2018-12-24T08:57:27.441Z,8.56
2018-12-24T08:58:27.472Z,8.64
2018-12-24T08:59:27.725Z,8.71
2018-12-24T09:00:27.779Z,8.66
2018-12-24T09:01:27.791Z,8.63
2018-12-24T09:02:27.789Z,8.58
2018-12-24T09:03:27.557Z,8.6
2018-12-24T09:04:27.685Z,8.67
2018-12-24T09:05:27.340Z,8.6
2018-12-24T09:06:27.356Z,8.64
2018-12-24T09:07:27.711Z,8.61
2018-12-24T09:08:27.765Z,8.63
2018-12-24T09:09:27.669Z,8.56
2018-12-24T09:10:28.044Z,8.63
2018-12-24T09:11:27.692Z,8.63
2018-12-24T09:12:27.463Z,8.63
2018-12-24T09:13:27.473Z,8.64
2018-12-24T09:14:27.799Z,8.6
2018-12-24T09:15:27.776Z,8.58
2018-12-24T09:16:27.797Z,8.56
2018-12-24T09:17:28.082Z,8.63
2018-12-24T09:18:27.826Z,8.6
2018-12-24T09:19:27.599Z,8.55
2018-12-24T09:20:27.618Z,8.58
2018-12-24T09:21:27.625Z,8.67
2018-12-24T09:22:27.972Z,8.6
2018-12-24T09:23:28.172Z,8.63
2018-12-24T09:24:27.936Z,8.69
2018-12-24T09:25:27.956Z,8.63
2018-12-24T09:26:27.704Z,8.63
2018-12-24T09:27:27.729Z,8.58
2018-12-24T09:28:28.029Z,8.6
2018-12-24T09:29:28.269Z,8.67
2018-12-24T09:30:28.046Z,8.55
2018-12-24T09:31:28.343Z,8.64
2018-12-24T09:32:27.861Z,8.53
2018-12-24T09:33:27.851Z,8.55
2018-12-24T09:34:27.858Z,8.67
2018-12-24T09:35:28.410Z,8.64
2018-12-24T09:36:27.905Z,8.61
2018-12-24T09:37:27.903Z,8.52
2018-12-24T09:38:27.933Z,8.61
2018-12-24T09:39:28.207Z,8.61
2018-12-24T09:40:28.584Z,8.6
2018-12-24T09:41:28.516Z,8.51
2018-12-24T09:42:27.991Z,8.46
2018-12-24T09:43:28.271Z,8.44
2018-12-24T09:44:28.543Z,8.46
2018-12-24T09:45:28.052Z,8.53
2018-12-24T09:46:28.334Z,8.49
2018-12-24T09:47:28.100Z,8.51
2018-12-24T09:48:28.380Z,8.52
2018-12-24T09:49:28.377Z,8.49
2018-12-24T09:50:28.146Z,8.52
2018-12-24T09:51:28.426Z,8.52
2018-12-24T09:52:28.450Z,8.49
2018-12-24T09:53:28.474Z,8.37
2018-12-24T09:54:28.754Z,8.38
2018-12-24T09:55:28.243Z,8.49
2018-12-24T09:56:28.258Z,8.37
2018-12-24T09:57:28.287Z,8.34
2018-12-24T09:58:28.553Z,8.36
2018-12-24T09:59:28.578Z,8.45
2018-12-24T10:00:28.590Z,8.33
2018-12-24T10:01:28.614Z,8.34
2018-12-24T10:02:28.626Z,8.36
2018-12-24T10:03:28.645Z,8.31
2018-12-24T10:04:28.679Z,8.34
2018-12-24T10:05:28.429Z,8.34
2018-12-24T10:06:28.701Z,8.3
2018-12-24T10:07:28.961Z,8.27
2018-12-24T10:08:29.004Z,8.33
2018-12-24T10:09:28.753Z,8.26
2018-12-24T10:10:28.504Z,8.31
2018-12-24T10:11:28.795Z,8.28
2018-12-24T10:12:29.067Z,8.28
2018-12-24T10:13:28.819Z,8.28
2018-12-24T10:14:28.844Z,8.27
2018-12-24T10:15:29.122Z,8.2
2018-12-24T10:16:28.620Z,8.26
2018-12-24T10:17:28.630Z,8.2
2018-12-24T10:18:28.652Z,8.27
2018-12-24T10:19:28.668Z,8.27
2018-12-24T10:20:29.221Z,8.23
2018-12-24T10:21:28.706Z,8.28
2018-12-24T10:22:28.719Z,8.27
2018-12-24T10:23:29.125Z,8.23
2018-12-24T10:24:29.302Z,8.27
2018-12-24T10:25:29.033Z,8.26
2018-12-24T10:26:29.323Z,8.26
2018-12-24T10:27:29.353Z,8.23
2018-12-24T10:28:29.105Z,8.26
2018-12-24T10:29:28.861Z,8.28
2018-12-24T10:30:29.139Z,8.26
2018-12-24T10:31:28.887Z,8.28
2018-12-24T10:32:28.909Z,8.23
2018-12-24T10:33:29.177Z,8.31
2018-12-24T10:34:29.198Z,8.27
2018-12-24T10:35:29.211Z,8.26
2018-12-24T10:36:28.988Z,8.26
2018-12-24T10:37:29.311Z,8.27
2018-12-24T10:38:29.018Z,8.3
2018-12-24T10:39:29.304Z,8.26
2018-12-24T10:40:29.303Z,8.34
2018-12-24T10:41:29.813Z,8.26
2018-12-24T10:42:29.079Z,8.31
2018-12-24T10:43:29.362Z,8.24
2018-12-24T10:44:29.643Z,8.28
2018-12-24T10:45:29.392Z,8.3
2018-12-24T10:46:29.161Z,8.33
2018-12-24T10:47:29.699Z,8.24
2018-12-24T10:48:29.459Z,8.26
2018-12-24T10:49:29.482Z,8.33
2018-12-24T10:50:29.496Z,8.3
2018-12-24T10:51:29.763Z,8.24
2018-12-24T10:52:29.261Z,8.27
2018-12-24T10:53:29.539Z,8.24
2018-12-24T10:54:29.312Z,8.33
2018-12-24T10:55:29.573Z,8.26
2018-12-24T10:56:29.612Z,8.28
2018-12-24T10:57:29.598Z,8.26
2018-12-24T10:58:29.375Z,8.26
2018-12-24T10:59:29.671Z,8.31
2018-12-24T11:00:29.409Z,8.28
2018-12-24T11:01:29.943Z,8.15
2018-12-24T11:02:29.706Z,8.19
2018-12-24T11:03:29.987Z,8.24
2018-12-24T11:04:29.480Z,8.24
2018-12-24T11:05:30.014Z,8.19
2018-12-24T11:06:29.797Z,8.27
2018-12-24T11:07:30.052Z,8.16
2018-12-24T11:08:30.076Z,8.18
2018-12-24T11:09:29.578Z,8.23
2018-12-24T11:10:29.870Z,8.24
2018-12-24T11:11:30.115Z,8.19
2018-12-24T11:12:29.632Z,8.15
2018-12-24T11:13:30.166Z,8.26
2018-12-24T11:14:29.932Z,8.24
2018-12-24T11:15:30.321Z,8.24
2018-12-24T11:16:29.694Z,8.18
2018-12-24T11:17:29.715Z,8.16
2018-12-24T11:18:30.261Z,8.19
2018-12-24T11:19:29.752Z,8.19
2018-12-24T11:20:29.770Z,8.18
2018-12-24T11:21:30.039Z,8.15
2018-12-24T11:22:29.813Z,8.16
2018-12-24T11:23:30.077Z,8.13
2018-12-24T11:24:30.359Z,8.16
2018-12-24T11:25:29.863Z,8.15
2018-12-24T11:26:30.117Z,8.12
2018-12-24T11:27:29.884Z,8.15
2018-12-24T11:28:30.186Z,8.13
2018-12-24T11:29:29.931Z,8.13
2018-12-24T11:30:29.950Z,8.13
2018-12-24T11:31:30.209Z,8.15
2018-12-24T11:32:30.236Z,8.15
2018-12-24T11:33:30.522Z,8.16
2018-12-24T11:34:30.303Z,8.18
2018-12-24T11:35:30.566Z,8.16
2018-12-24T11:36:30.039Z,8.19
2018-12-24T11:37:30.578Z,8.24
2018-12-24T11:38:30.086Z,8.23
2018-12-24T11:39:30.618Z,8.24
2018-12-24T11:40:30.389Z,8.27
2018-12-24T11:41:30.465Z,8.23
2018-12-24T11:42:30.742Z,8.24
2018-12-24T11:43:30.708Z,8.24
2018-12-24T11:44:30.449Z,8.28
2018-12-24T11:45:38.361Z,8.26
2018-12-24T11:46:30.819Z,8.28
2018-12-24T11:47:30.252Z,8.31
2018-12-24T11:48:30.267Z,8.27
2018-12-24T11:49:30.281Z,8.28
2018-12-24T11:50:30.563Z,8.3
2018-12-24T11:51:30.585Z,8.31
2018-12-24T11:52:30.630Z,8.31
2018-12-24T11:53:30.616Z,8.34
2018-12-24T11:54:30.640Z,8.36
2018-12-24T11:55:30.382Z,8.33
2018-12-24T11:56:30.664Z,8.36
2018-12-24T11:57:30.964Z,8.33
2018-12-24T11:58:30.451Z,8.34
2018-12-24T11:59:30.737Z,8.37
2018-12-24T12:00:30.739Z,8.33
2018-12-24T12:01:31.020Z,8.37
2018-12-24T12:02:30.778Z,8.34
2018-12-24T12:03:30.808Z,8.36
2018-12-24T12:04:30.813Z,8.46
2018-12-24T12:05:30.835Z,8.37
2018-12-24T12:06:31.128Z,8.38
2018-12-24T12:07:30.606Z,8.37
2018-12-24T12:08:30.872Z,8.41
2018-12-24T12:09:30.914Z,8.41
2018-12-24T12:10:30.908Z,8.45
2018-12-24T12:11:30.932Z,8.45
2018-12-24T12:12:30.962Z,8.46
2018-12-24T12:13:30.712Z,8.45
2018-12-24T12:14:30.812Z,8.53
2018-12-24T12:15:31.051Z,8.51
2018-12-24T12:16:31.817Z,8.42
2018-12-24T12:17:31.051Z,8.52
2018-12-24T12:18:31.067Z,8.46
2018-12-24T12:19:31.336Z,8.46
2018-12-24T12:20:31.113Z,8.48
2018-12-24T12:21:31.365Z,8.44
2018-12-24T12:22:31.144Z,8.48
2018-12-24T12:23:31.140Z,8.46
2018-12-24T12:24:31.441Z,8.49
2018-12-24T12:25:31.188Z,8.45
2018-12-24T12:26:32.609Z,8.46
2018-12-24T12:27:31.218Z,8.46
2018-12-24T12:28:30.986Z,8.46
2018-12-24T12:29:31.005Z,8.58
2018-12-24T12:30:31.013Z,8.46
2018-12-24T12:31:31.297Z,8.49
2018-12-24T12:32:31.566Z,8.48
2018-12-24T12:33:31.344Z,8.53
2018-12-24T12:34:31.094Z,8.49
2018-12-24T12:35:31.114Z,8.55
2018-12-24T12:36:31.179Z,8.63
2018-12-24T12:37:31.405Z,8.6
2018-12-24T12:38:34.484Z,8.56
2018-12-24T12:39:31.448Z,8.58
2018-12-24T12:40:31.451Z,8.61
2018-12-24T12:41:31.263Z,8.61
2018-12-24T12:42:31.245Z,8.61
2018-12-24T12:43:31.510Z,8.64
2018-12-24T12:44:31.540Z,8.66
2018-12-24T12:45:31.304Z,8.63
2018-12-24T12:46:31.554Z,8.64
2018-12-24T12:47:31.587Z,8.6
2018-12-24T12:48:31.609Z,8.63
2018-12-24T12:49:31.633Z,8.64
2018-12-24T12:50:31.637Z,8.63
2018-12-24T12:51:31.642Z,8.67
2018-12-24T12:52:31.674Z,8.6
2018-12-24T12:53:31.682Z,8.58
2018-12-24T12:54:31.438Z,8.58
2018-12-24T12:55:31.725Z,8.67
2018-12-24T12:56:31.738Z,8.61
2018-12-24T12:57:32.033Z,8.56
2018-12-24T12:58:31.770Z,8.69
2018-12-24T12:59:31.544Z,8.61
2018-12-24T13:00:31.823Z,8.69
2018-12-24T13:01:32.094Z,8.61
2018-12-24T13:02:31.849Z,8.64
2018-12-24T13:03:32.147Z,8.64
2018-12-24T13:04:31.888Z,8.55
2018-12-24T13:05:31.913Z,8.76
2018-12-24T13:06:31.666Z,8.67
2018-12-24T13:07:31.935Z,8.66
2018-12-24T13:08:31.711Z,8.69
2018-12-24T13:09:31.966Z,8.67
2018-12-24T13:10:31.997Z,8.7
2018-12-24T13:11:32.004Z,8.69
2018-12-24T13:12:31.786Z,8.7
2018-12-24T13:13:39.142Z,8.74
2018-12-24T13:14:32.067Z,8.71
2018-12-24T13:15:32.091Z,8.81
2018-12-24T13:16:31.840Z,8.73
2018-12-24T13:17:32.502Z,8.78
2018-12-24T13:18:32.397Z,8.73
2018-12-24T13:19:31.902Z,8.74
2018-12-24T13:20:32.174Z,8.66
2018-12-24T13:21:32.452Z,8.74
2018-12-24T13:22:31.952Z,8.73
2018-12-24T13:23:31.954Z,8.69
2018-12-24T13:24:32.241Z,8.64